createdAt,value
2023-03-29T00:02:07.978Z,78.54
2023-03-29T00:04:35.404Z,78.48
2023-03-29T00:07:04.650Z,78.08
2023-03-29T00:09:33.553Z,78.00
2023-03-29T00:12:01.333Z,77.68
2023-03-29T00:14:31.118Z,77.67
2023-03-29T00:16:59.278Z,77.63
2023-03-29T00:19:26.907Z,77.68
2023-03-29T00:21:53.862Z,77.02
2023-03-29T00:24:21.527Z,77.23
2023-03-29T00:26:48.838Z,76.93
2023-03-29T00:29:16.796Z,76.72
2023-03-29T00:31:52.710Z,76.80
2023-03-29T00:34:30.922Z,76.44
2023-03-29T00:36:58.532Z,76.51
2023-03-29T00:39:28.134Z,76.23
2023-03-29T00:41:56.091Z,76.16
2023-03-29T00:45:00.232Z,76.39
2023-03-29T00:47:33.444Z,76.16
2023-03-29T00:50:29.852Z,76.16
2023-03-29T00:53:15.268Z,76.16
2023-03-29T00:55:52.736Z,75.65
2023-03-29T00:58:36.361Z,76.19
2023-03-29T01:01:11.173Z,75.99
2023-03-29T01:03:46.582Z,75.69
2023-03-29T01:06:18.448Z,76.14
2023-03-29T01:08:54.181Z,76.56
2023-03-29T01:11:27.524Z,76.86
2023-03-29T01:14:01.101Z,76.50
2023-03-29T01:16:30.518Z,76.42
2023-03-29T01:19:00.622Z,76.27
2023-03-29T01:21:51.752Z,76.95
2023-03-29T01:24:38.083Z,77.04
2023-03-29T01:27:36.230Z,77.28
2023-03-29T01:30:10.493Z,76.63
2023-03-29T01:32:50.621Z,76.73
2023-03-29T01:35:28.342Z,76.38
2023-03-29T01:38:09.684Z,76.80
2023-03-29T01:40:36.946Z,76.58
2023-03-29T01:43:19.375Z,76.60
2023-03-29T01:45:55.664Z,76.35
2023-03-29T01:48:28.454Z,76.14
2023-03-29T01:51:11.664Z,75.96
2023-03-29T01:53:47.794Z,76.09
2023-03-29T01:56:18.923Z,76.21
2023-03-29T01:58:50.323Z,75.84
2023-03-29T02:01:26.095Z,76.04
2023-03-29T02:03:57.054Z,76.25
2023-03-29T02:06:28.276Z,76.49
2023-03-29T02:08:58.451Z,76.25
2023-03-29T02:11:27.473Z,76.47
2023-03-29T02:13:54.371Z,76.19
2023-03-29T02:16:21.629Z,76.31
2023-03-29T02:18:50.559Z,76.28
2023-03-29T02:21:51.887Z,75.97
2023-03-29T02:24:21.855Z,76.18
2023-03-29T02:26:49.460Z,76.22
2023-03-29T02:29:17.272Z,75.97
2023-03-29T02:31:54.067Z,76.25
2023-03-29T02:34:28.292Z,75.85
2023-03-29T02:37:11.122Z,75.94
2023-03-29T02:39:42.144Z,76.00
2023-03-29T02:42:10.589Z,75.65
2023-03-29T02:44:42.070Z,75.67
2023-03-29T02:47:18.930Z,75.76
2023-03-29T02:49:46.041Z,75.63
2023-03-29T02:52:17.002Z,75.71
2023-03-29T02:54:48.234Z,75.99
2023-03-29T02:57:15.247Z,75.99
2023-03-29T02:59:44.773Z,76.28
2023-03-29T03:02:12.336Z,76.09
2023-03-29T03:04:40.087Z,75.92
2023-03-29T03:07:07.128Z,76.04
2023-03-29T03:09:34.473Z,75.66
2023-03-29T03:12:02.013Z,75.91
2023-03-29T03:14:29.551Z,75.56
2023-03-29T03:16:58.419Z,75.48
2023-03-29T03:19:25.300Z,75.43
2023-03-29T03:21:52.344Z,75.39
2023-03-29T03:24:21.955Z,75.66
2023-03-29T03:26:50.148Z,75.23
2023-03-29T03:29:19.368Z,75.75
2023-03-29T03:32:16.393Z,75.54
2023-03-29T03:35:11.850Z,75.56
2023-03-29T03:37:41.103Z,75.24
2023-03-29T03:40:11.856Z,74.98
2023-03-29T03:42:42.513Z,74.75
2023-03-29T03:45:10.716Z,74.41
2023-03-29T03:47:52.604Z,74.79
2023-03-29T03:50:24.894Z,74.62
2023-03-29T03:52:52.269Z,74.38
2023-03-29T03:55:21.766Z,74.65
2023-03-29T03:58:02.171Z,74.47
2023-03-29T04:00:29.863Z,74.49
2023-03-29T04:03:15.784Z,74.07
2023-03-29T04:05:45.334Z,74.00
2023-03-29T04:08:14.936Z,73.51
2023-03-29T04:11:08.445Z,74.01
2023-03-29T04:13:38.042Z,73.79
2023-03-29T04:16:28.686Z,73.20
2023-03-29T04:19:01.758Z,72.88
2023-03-29T04:21:29.164Z,72.98
2023-03-29T04:23:56.284Z,72.54
2023-03-29T04:26:23.602Z,72.47
2023-03-29T04:28:57.263Z,72.23
2023-03-29T04:31:38.687Z,71.86
2023-03-29T04:34:22.591Z,71.67
2023-03-29T04:36:52.416Z,72.05
2023-03-29T04:39:23.093Z,72.48
2023-03-29T04:41:54.980Z,72.05
2023-03-29T04:44:27.312Z,71.81
2023-03-29T04:46:57.452Z,71.85
2023-03-29T04:49:27.606Z,71.38
2023-03-29T04:51:55.154Z,71.35
2023-03-29T04:54:26.528Z,71.11
2023-03-29T04:57:19.086Z,70.90
2023-03-29T04:59:59.293Z,70.89
2023-03-29T05:02:55.301Z,70.78
2023-03-29T05:05:22.829Z,70.54
2023-03-29T05:07:51.319Z,70.22
2023-03-29T05:10:23.659Z,70.36
2023-03-29T05:12:54.315Z,69.89
2023-03-29T05:15:25.807Z,70.49
2023-03-29T05:17:53.668Z,70.07
2023-03-29T05:20:22.129Z,70.17
2023-03-29T05:22:49.559Z,69.97
2023-03-29T05:25:39.133Z,69.89
2023-03-29T05:28:06.671Z,70.41
2023-03-29T05:30:33.938Z,70.32
2023-03-29T05:33:09.289Z,69.59
2023-03-29T05:35:36.691Z,69.09
2023-03-29T05:38:07.181Z,69.00
2023-03-29T05:40:35.948Z,68.43
2023-03-29T05:43:29.140Z,67.93
2023-03-29T05:45:56.801Z,67.33
2023-03-29T05:48:24.541Z,67.34
2023-03-29T05:50:53.645Z,67.59
2023-03-29T05:53:23.821Z,67.24
2023-03-29T05:55:51.695Z,67.24
2023-03-29T05:58:21.705Z,66.60
2023-03-29T06:00:50.076Z,67.53
2023-03-29T06:03:47.583Z,66.36
2023-03-29T06:06:16.841Z,65.62
2023-03-29T06:08:44.818Z,66.24
2023-03-29T06:11:47.680Z,65.42
2023-03-29T06:14:15.892Z,65.76
2023-03-29T06:16:48.432Z,65.25
2023-03-29T06:19:16.314Z,65.53
2023-03-29T06:21:43.867Z,65.17
2023-03-29T06:24:14.388Z,65.03
2023-03-29T06:26:47.193Z,65.21
2023-03-29T06:29:14.863Z,66.11
2023-03-29T06:31:43.165Z,65.76
2023-03-29T06:34:22.740Z,65.53
2023-03-29T06:37:13.108Z,65.56
2023-03-29T06:39:41.249Z,65.75
2023-03-29T06:42:24.812Z,65.19
2023-03-29T06:45:29.482Z,65.74
2023-03-29T06:47:59.003Z,66.70
2023-03-29T06:50:26.387Z,66.48
2023-03-29T06:53:08.100Z,67.18
2023-03-29T06:55:36.352Z,67.52
2023-03-29T06:58:34.471Z,68.10
2023-03-29T07:01:08.475Z,69.98
2023-03-29T07:03:52.878Z,71.21
2023-03-29T07:06:24.493Z,71.70
2023-03-29T07:08:52.641Z,71.61
2023-03-29T07:11:50.475Z,71.50
2023-03-29T07:14:28.627Z,71.30
2023-03-29T07:16:58.704Z,70.61
2023-03-29T07:19:39.430Z,71.34
2023-03-29T07:22:19.767Z,73.28
2023-03-29T07:24:51.224Z,75.76
2023-03-29T07:27:18.266Z,76.12
2023-03-29T07:29:49.286Z,76.92
2023-03-29T07:32:17.944Z,78.18
2023-03-29T07:34:45.063Z,77.91
2023-03-29T07:37:25.269Z,78.03
2023-03-29T07:39:53.653Z,79.98
2023-03-29T07:42:46.955Z,82.54
2023-03-29T07:45:20.597Z,82.02
2023-03-29T07:48:04.038Z,79.97
2023-03-29T07:50:51.260Z,78.22
2023-03-29T07:53:23.269Z,78.52
2023-03-29T07:55:55.013Z,78.17
2023-03-29T07:58:41.531Z,77.71
2023-03-29T08:01:08.708Z,77.66
2023-03-29T08:03:58.846Z,78.58
2023-03-29T08:06:47.460Z,77.79
2023-03-29T08:09:14.541Z,78.20
2023-03-29T08:11:44.021Z,75.51
2023-03-29T08:14:23.925Z,75.53
2023-03-29T08:17:09.873Z,75.38
2023-03-29T08:19:51.444Z,75.31
2023-03-29T08:22:23.858Z,73.92
2023-03-29T08:25:29.855Z,73.78
2023-03-29T08:27:57.948Z,73.48
2023-03-29T08:30:42.232Z,73.72
2023-03-29T08:33:09.652Z,74.59
2023-03-29T08:35:37.001Z,73.86
2023-03-29T08:38:16.402Z,74.19
2023-03-29T08:40:43.622Z,73.43
2023-03-29T08:43:16.748Z,73.84
2023-03-29T08:46:19.225Z,73.75
2023-03-29T08:48:54.312Z,74.39
2023-03-29T08:51:23.134Z,76.63
2023-03-29T08:54:02.403Z,76.99
2023-03-29T08:56:51.486Z,77.00
2023-03-29T08:59:28.868Z,78.11
2023-03-29T09:01:58.081Z,77.86
2023-03-29T09:04:36.661Z,79.61
2023-03-29T09:07:27.455Z,80.01
2023-03-29T09:09:55.993Z,78.92
2023-03-29T09:13:07.759Z,80.13
2023-03-29T09:15:46.752Z,80.35
2023-03-29T09:18:47.721Z,80.85
2023-03-29T09:21:59.333Z,81.37
2023-03-29T09:24:42.823Z,82.84
2023-03-29T09:27:32.497Z,82.84
2023-03-29T09:30:26.344Z,83.82
2023-03-29T09:33:42.928Z,84.61
2023-03-29T09:36:30.199Z,84.67
2023-03-29T09:38:57.646Z,85.66
2023-03-29T09:41:33.886Z,85.50
2023-03-29T09:44:10.863Z,86.39
2023-03-29T09:46:47.616Z,87.32
2023-03-29T09:49:21.981Z,87.01
2023-03-29T09:51:50.393Z,88.46
2023-03-29T09:54:19.594Z,88.47
2023-03-29T09:57:05.073Z,88.04
2023-03-29T09:59:32.574Z,87.66
2023-03-29T10:02:13.019Z,88.50
2023-03-29T10:04:42.587Z,89.62
2023-03-29T10:07:18.207Z,89.88
2023-03-29T10:09:51.137Z,88.76
2023-03-29T10:12:21.010Z,88.89
2023-03-29T10:14:54.291Z,90.19
2023-03-29T10:17:23.690Z,90.53
2023-03-29T10:19:52.831Z,89.48
2023-03-29T10:22:24.877Z,88.88
2023-03-29T10:24:53.483Z,90.00
2023-03-29T10:27:24.583Z,89.78
2023-03-29T10:29:52.228Z,90.24
2023-03-29T10:32:23.072Z,89.74
2023-03-29T10:34:52.229Z,90.11
2023-03-29T10:37:21.274Z,89.23
2023-03-29T10:39:49.240Z,89.64
2023-03-29T10:42:19.593Z,90.66
2023-03-29T10:44:55.530Z,90.85
2023-03-29T10:47:22.804Z,91.13
2023-03-29T10:49:58.983Z,90.64
2023-03-29T10:52:26.146Z,90.18
2023-03-29T10:54:55.214Z,90.50
2023-03-29T10:57:42.555Z,90.98
2023-03-29T11:00:57.742Z,94.05
2023-03-29T11:04:12.176Z,91.41
2023-03-29T11:07:13.324Z,91.68
2023-03-29T11:10:19.278Z,91.67
2023-03-29T11:13:10.451Z,92.17
2023-03-29T11:16:18.816Z,93.83
2023-03-29T11:18:55.389Z,91.70
2023-03-29T11:21:28.209Z,91.93
2023-03-29T11:24:16.888Z,93.18
2023-03-29T11:27:16.073Z,93.03
2023-03-29T11:30:12.320Z,93.64
2023-03-29T11:32:46.121Z,93.54
2023-03-29T11:35:59.570Z,93.27
2023-03-29T11:38:37.578Z,93.34
2023-03-29T11:41:28.330Z,94.31
2023-03-29T11:44:01.880Z,93.79
2023-03-29T11:46:33.910Z,94.10
2023-03-29T11:49:15.375Z,96.00
2023-03-29T11:51:52.150Z,96.35
2023-03-29T11:54:25.469Z,96.86
2023-03-29T11:56:57.455Z,96.39
2023-03-29T11:59:30.349Z,97.08
2023-03-29T12:02:10.026Z,96.56
2023-03-29T12:04:48.557Z,96.91
2023-03-29T12:07:32.349Z,95.92
2023-03-29T12:10:07.219Z,96.09
2023-03-29T12:12:50.825Z,96.59
2023-03-29T12:15:22.915Z,95.69
2023-03-29T12:18:02.149Z,96.35
2023-03-29T12:20:34.214Z,95.88
2023-03-29T12:23:02.890Z,97.71
2023-03-29T12:25:52.939Z,98.09
2023-03-29T12:28:27.971Z,97.51
2023-03-29T12:31:25.676Z,97.86
2023-03-29T12:34:15.786Z,97.90
2023-03-29T12:37:12.990Z,97.69
2023-03-29T12:39:46.701Z,98.63
2023-03-29T12:42:32.467Z,97.52
2023-03-29T12:45:30.461Z,98.58
2023-03-29T12:47:58.135Z,99.08
2023-03-29T12:50:28.715Z,98.04
2023-03-29T12:53:15.136Z,98.97
2023-03-29T12:55:42.485Z,97.96
2023-03-29T12:58:36.747Z,98.63
2023-03-29T13:01:23.573Z,98.53
2023-03-29T13:03:52.221Z,98.36
2023-03-29T13:06:35.400Z,98.40
2023-03-29T13:09:23.062Z,99.40
2023-03-29T13:11:58.587Z,97.66
2023-03-29T13:14:30.364Z,97.14
2023-03-29T13:17:28.288Z,97.37
2023-03-29T13:20:13.766Z,96.68
2023-03-29T13:23:15.592Z,96.41
2023-03-29T13:26:12.246Z,96.22
2023-03-29T13:29:09.726Z,95.59
2023-03-29T13:32:11.247Z,96.54
2023-03-29T13:34:47.683Z,96.45
2023-03-29T13:37:33.014Z,96.59
2023-03-29T13:40:00.309Z,96.72
2023-03-29T13:42:33.371Z,96.90
2023-03-29T13:45:09.349Z,97.34
2023-03-29T13:47:54.877Z,97.78
2023-03-29T13:50:36.369Z,99.11
2023-03-29T13:53:31.215Z,99.39
2023-03-29T13:56:02.045Z,100.00
2023-03-29T13:58:44.491Z,99.56
2023-03-29T14:01:36.605Z,100.00
2023-03-29T14:04:06.205Z,100.00
2023-03-29T14:06:37.327Z,100.00
2023-03-29T14:09:08.682Z,100.00
2023-03-29T14:11:36.709Z,100.00
2023-03-29T14:14:11.024Z,100.00
2023-03-29T14:16:40.744Z,100.00
2023-03-29T14:19:30.211Z,100.00
2023-03-29T14:21:59.399Z,100.00
2023-03-29T14:24:34.308Z,100.00
2023-03-29T14:27:04.413Z,100.00
2023-03-29T14:29:34.898Z,100.00
2023-03-29T14:32:12.814Z,100.00
2023-03-29T14:34:40.694Z,100.00
2023-03-29T14:37:11.575Z,100.00
2023-03-29T14:39:41.126Z,99.86
2023-03-29T14:42:16.351Z,99.47
2023-03-29T14:44:45.015Z,99.84
2023-03-29T14:47:19.123Z,99.75
2023-03-29T14:49:47.480Z,99.47
2023-03-29T14:52:15.364Z,99.45
2023-03-29T14:54:47.239Z,99.50
2023-03-29T14:57:18.689Z,99.59
2023-03-29T14:59:54.903Z,99.59
2023-03-29T15:02:54.900Z,99.29
2023-03-29T15:05:41.196Z,98.12
2023-03-29T15:08:14.962Z,98.70
2023-03-29T15:10:44.847Z,98.33
2023-03-29T15:13:19.834Z,98.24
2023-03-29T15:15:51.204Z,98.69
2023-03-29T15:18:21.324Z,98.60
2023-03-29T15:20:48.596Z,98.40
2023-03-29T15:23:15.506Z,98.21
2023-03-29T15:25:59.163Z,98.90
2023-03-29T15:28:32.768Z,98.66
2023-03-29T15:31:10.949Z,97.94
2023-03-29T15:33:43.187Z,98.23
2023-03-29T15:36:12.905Z,97.70
2023-03-29T15:38:44.669Z,98.56
2023-03-29T15:41:14.308Z,98.21
2023-03-29T15:43:42.576Z,98.00
2023-03-29T15:46:12.922Z,98.37
2023-03-29T15:48:40.976Z,98.04
2023-03-29T15:51:10.826Z,98.57
2023-03-29T15:53:38.107Z,98.76
2023-03-29T15:56:08.051Z,98.17
2023-03-29T15:58:37.110Z,97.96
2023-03-29T16:01:12.434Z,98.15
2023-03-29T16:03:40.290Z,98.05
2023-03-29T16:06:13.715Z,97.51
2023-03-29T16:08:42.041Z,97.77
2023-03-29T16:11:09.406Z,98.16
2023-03-29T16:13:36.537Z,97.42
2023-03-29T16:16:04.033Z,98.13
2023-03-29T16:18:31.142Z,97.78
2023-03-29T16:20:59.477Z,98.17
2023-03-29T16:23:26.643Z,97.93
2023-03-29T16:25:53.703Z,98.25
2023-03-29T16:28:20.900Z,98.14
2023-03-29T16:30:48.668Z,98.33
2023-03-29T16:33:16.221Z,98.43
2023-03-29T16:35:43.446Z,98.77
2023-03-29T16:38:10.469Z,97.85
2023-03-29T16:40:37.733Z,97.55
2023-03-29T16:43:04.703Z,98.36
2023-03-29T16:45:32.004Z,98.01
2023-03-29T16:47:59.045Z,97.34
2023-03-29T16:50:26.338Z,97.21
2023-03-29T16:52:53.336Z,97.58
2023-03-29T16:55:20.574Z,97.88
2023-03-29T16:57:48.944Z,97.01
2023-03-29T17:00:19.688Z,97.74
2023-03-29T17:02:49.772Z,97.49
2023-03-29T17:05:18.673Z,97.27
2023-03-29T17:07:47.038Z,97.04
2023-03-29T17:10:14.277Z,97.23
2023-03-29T17:12:41.597Z,97.77
2023-03-29T17:15:09.538Z,97.58
2023-03-29T17:17:37.913Z,96.81
2023-03-29T17:20:08.746Z,96.67
2023-03-29T17:22:36.178Z,96.33
2023-03-29T17:25:07.283Z,96.57
2023-03-29T17:27:35.955Z,96.20
2023-03-29T17:30:03.794Z,96.18
2023-03-29T17:32:31.491Z,95.62
2023-03-29T17:34:59.447Z,95.97
2023-03-29T17:37:27.909Z,96.19
2023-03-29T17:39:55.717Z,95.54
2023-03-29T17:42:22.597Z,96.03
2023-03-29T17:44:49.612Z,96.69
2023-03-29T17:47:16.713Z,96.82
2023-03-29T17:49:43.656Z,97.49
2023-03-29T17:52:10.889Z,97.40
2023-03-29T17:54:37.897Z,97.54
2023-03-29T17:57:05.110Z,97.72
2023-03-29T17:59:32.006Z,97.45
2023-03-29T18:02:00.173Z,97.36
2023-03-29T18:04:27.318Z,97.04
2023-03-29T18:06:57.340Z,97.46
2023-03-29T18:09:27.492Z,97.24
2023-03-29T18:11:55.641Z,96.42
2023-03-29T18:14:22.600Z,96.96
2023-03-29T18:16:49.578Z,96.33
2023-03-29T18:19:16.498Z,96.15
2023-03-29T18:21:43.522Z,97.05
2023-03-29T18:24:11.548Z,96.12
2023-03-29T18:26:38.539Z,96.47
2023-03-29T18:29:07.361Z,96.20
2023-03-29T18:31:36.333Z,96.17
2023-03-29T18:34:04.149Z,95.31
2023-03-29T18:36:34.109Z,95.76
2023-03-29T18:39:05.832Z,95.12
2023-03-29T18:41:37.420Z,95.34
2023-03-29T18:44:04.839Z,95.11
2023-03-29T18:46:35.214Z,95.22
2023-03-29T18:49:02.914Z,95.28
2023-03-29T18:51:31.149Z,95.54
2023-03-29T18:53:58.200Z,95.17
2023-03-29T18:56:25.756Z,95.46
2023-03-29T18:58:53.873Z,96.38
2023-03-29T19:01:21.328Z,96.10
2023-03-29T19:03:51.684Z,96.28
2023-03-29T19:10:14.094Z,95.82
2023-03-29T19:16:17.916Z,96.21
2023-03-29T19:18:52.104Z,95.98
2023-03-29T19:22:00.554Z,96.14
2023-03-29T19:25:20.168Z,96.01
2023-03-29T19:32:14.608Z,96.37
2023-03-29T19:34:43.307Z,97.14
2023-03-29T19:37:30.342Z,96.40
2023-03-29T19:39:57.393Z,96.35
2023-03-29T19:42:36.334Z,96.47
2023-03-29T19:45:12.737Z,96.99
2023-03-29T19:47:48.014Z,96.72
2023-03-29T19:50:19.242Z,96.35
2023-03-29T19:52:50.465Z,97.13
2023-03-29T19:55:18.683Z,96.95
2023-03-29T19:57:45.644Z,97.59
2023-03-29T20:00:14.938Z,98.34
2023-03-29T20:02:42.572Z,98.15
2023-03-29T20:05:09.961Z,98.18
2023-03-29T20:07:36.880Z,97.58
2023-03-29T20:10:04.148Z,96.99
2023-03-29T20:12:31.085Z,97.96
2023-03-29T20:14:58.067Z,98.17
2023-03-29T20:17:25.291Z,97.91
2023-03-29T20:19:54.041Z,98.12
2023-03-29T20:22:21.821Z,98.03
2023-03-29T20:24:48.777Z,97.26
2023-03-29T20:27:15.917Z,97.30
2023-03-29T20:29:43.273Z,97.61
2023-03-29T20:32:10.314Z,97.70
2023-03-29T20:34:37.581Z,97.57
2023-03-29T20:37:04.875Z,97.15
2023-03-29T20:39:31.929Z,97.61
2023-03-29T20:41:59.266Z,96.82
2023-03-29T20:44:28.366Z,96.50
2023-03-29T20:47:08.270Z,97.23
2023-03-29T20:49:39.363Z,97.29
2023-03-29T20:52:09.403Z,96.69
2023-03-29T20:54:37.316Z,97.34
2023-03-29T20:57:09.649Z,97.80
2023-03-29T20:59:38.179Z,97.67
2023-03-29T21:02:05.303Z,97.73
2023-03-29T21:04:32.455Z,97.45
2023-03-29T21:07:01.656Z,96.42
2023-03-29T21:09:31.154Z,96.77
2023-03-29T21:11:58.107Z,96.38
2023-03-29T21:14:26.755Z,96.86
2023-03-29T21:16:53.719Z,96.59
2023-03-29T21:19:21.282Z,96.48
2023-03-29T21:21:52.273Z,97.12
2023-03-29T21:24:19.440Z,96.49
2023-03-29T21:26:46.724Z,96.84
2023-03-29T21:29:14.081Z,96.99
2023-03-29T21:31:41.178Z,96.46
2023-03-29T21:34:08.216Z,96.81
2023-03-29T21:36:35.093Z,96.80
2023-03-29T21:39:02.129Z,97.89
2023-03-29T21:41:29.082Z,97.04
2023-03-29T21:43:56.165Z,97.62
2023-03-29T21:46:24.734Z,97.00
2023-03-29T21:48:52.221Z,96.81
2023-03-29T21:51:19.182Z,96.55
2023-03-29T21:53:46.160Z,96.82
2023-03-29T21:56:13.229Z,96.90
2023-03-29T21:58:40.162Z,96.72
2023-03-29T22:01:09.965Z,96.57
2023-03-29T22:03:38.194Z,95.72
2023-03-29T22:06:10.642Z,95.96
2023-03-29T22:08:40.572Z,95.67
2023-03-29T22:11:10.975Z,95.39
2023-03-29T22:13:38.057Z,95.17
2023-03-29T22:16:06.158Z,95.61
2023-03-29T22:18:46.880Z,95.20
2023-03-29T22:21:23.497Z,95.22
2023-03-29T22:23:51.883Z,94.90
2023-03-29T22:26:21.559Z,94.76
2023-03-29T22:28:48.539Z,94.82
2023-03-29T22:31:18.837Z,94.13
2023-03-29T22:33:46.795Z,93.77
2023-03-29T22:36:16.751Z,94.45
2023-03-29T22:38:45.820Z,94.06
2023-03-29T22:41:13.708Z,94.03
2023-03-29T22:43:41.388Z,93.61
2023-03-29T22:46:11.775Z,93.75
2023-03-29T22:48:39.434Z,93.26
2023-03-29T22:51:06.763Z,93.37
2023-03-29T22:53:34.241Z,93.81
2023-03-29T22:56:01.470Z,93.39
2023-03-29T22:58:31.887Z,93.95
2023-03-29T23:00:59.001Z,93.77
2023-03-29T23:03:26.685Z,92.78
2023-03-29T23:05:56.468Z,93.18
2023-03-29T23:08:25.032Z,92.91
2023-03-29T23:10:52.790Z,92.38
2023-03-29T23:13:24.309Z,92.51
2023-03-29T23:15:53.154Z,92.20
2023-03-29T23:18:21.287Z,92.46
2023-03-29T23:20:50.305Z,92.83
2023-03-29T23:23:19.091Z,92.50
2023-03-29T23:25:47.608Z,92.00
2023-03-29T23:28:16.962Z,92.06
2023-03-29T23:30:44.042Z,92.28
2023-03-29T23:33:11.814Z,92.07
2023-03-29T23:35:38.805Z,93.28
2023-03-29T23:38:06.315Z,92.53
2023-03-29T23:40:33.401Z,92.99
2023-03-29T23:43:00.385Z,92.53
2023-03-29T23:45:30.623Z,92.64
2023-03-29T23:47:57.801Z,93.11
2023-03-29T23:50:28.606Z,92.35
2023-03-29T23:52:55.673Z,92.79
2023-03-29T23:55:22.631Z,92.58
2023-03-29T23:57:49.506Z,92.51
